createdAt,value
2018-12-18T00:00:01.505Z,4.92
2018-12-18T00:02:30.378Z,5.23
2018-12-18T00:05:01.287Z,4.75
2018-12-18T00:07:30.468Z,4.40
2018-12-18T00:09:59.711Z,4.80
2018-12-18T00:12:28.992Z,4.72
2018-12-18T00:14:58.308Z,4.60
2018-12-18T00:17:27.197Z,5.73
2018-12-18T00:19:56.664Z,4.50
2018-12-18T00:22:25.546Z,5.83
2018-12-18T00:24:54.713Z,4.47
2018-12-18T00:27:24.015Z,4.57
2018-12-18T00:29:53.259Z,5.40
2018-12-18T00:32:22.184Z,5.07
2018-12-18T00:34:51.327Z,5.23
2018-12-18T00:37:20.568Z,4.00
2018-12-18T00:39:49.979Z,3.83
2018-12-18T00:42:19.933Z,4.00
2018-12-18T00:44:49.225Z,5.53
2018-12-18T00:47:18.531Z,3.93
2018-12-18T00:49:47.843Z,4.42
2018-12-18T00:52:17.213Z,4.43
2018-12-18T00:54:46.447Z,3.97
2018-12-18T00:57:15.720Z,4.00
2018-12-18T00:59:45.091Z,3.60
2018-12-18T01:02:14.317Z,4.17
2018-12-18T01:04:45.331Z,4.27
2018-12-18T01:07:14.797Z,4.07
2018-12-18T01:09:44.049Z,4.30
2018-12-18T01:12:13.458Z,3.93
2018-12-18T01:14:42.319Z,4.70
2018-12-18T01:17:12.508Z,4.37
2018-12-18T01:19:41.415Z,4.07
2018-12-18T01:22:11.067Z,4.70
2018-12-18T01:24:40.300Z,5.53
2018-12-18T01:27:09.572Z,4.07
2018-12-18T01:29:38.844Z,4.47
2018-12-18T01:32:08.080Z,4.20
2018-12-18T01:34:37.435Z,4.43
2018-12-18T01:37:06.687Z,3.93
2018-12-18T01:39:35.920Z,4.43
2018-12-18T01:42:05.199Z,4.00
2018-12-18T01:44:34.431Z,4.00
2018-12-18T01:47:03.717Z,3.67
2018-12-18T01:49:32.622Z,4.47
2018-12-18T01:52:01.816Z,4.93
2018-12-18T01:54:30.788Z,4.63
2018-12-18T01:56:59.938Z,3.83
2018-12-18T01:59:29.344Z,4.50
2018-12-18T02:01:58.607Z,4.13
2018-12-18T02:04:27.887Z,3.70
2018-12-18T02:06:57.122Z,4.97
2018-12-18T02:09:26.355Z,4.13
2018-12-18T02:11:55.699Z,4.33
2018-12-18T02:14:24.624Z,4.83
2018-12-18T02:16:53.835Z,4.10
2018-12-18T02:19:22.843Z,4.37
2018-12-18T02:21:52.008Z,4.23
2018-12-18T02:24:21.271Z,3.90
2018-12-18T02:26:50.502Z,4.90
2018-12-18T02:29:19.780Z,4.47
2018-12-18T02:31:49.035Z,4.83
2018-12-18T02:34:18.871Z,3.97
2018-12-18T02:36:48.128Z,4.07
2018-12-18T02:39:17.563Z,3.93
2018-12-18T02:41:46.820Z,3.90
2018-12-18T02:44:16.119Z,4.20
2018-12-18T02:46:44.999Z,3.20
2018-12-18T02:49:14.149Z,4.57
2018-12-18T02:51:43.039Z,3.60
2018-12-18T02:54:11.854Z,4.53
2018-12-18T02:56:40.635Z,3.87
2018-12-18T02:59:09.881Z,3.33
2018-12-18T03:01:39.137Z,3.50
2018-12-18T03:04:08.031Z,4.10
2018-12-18T03:06:37.296Z,4.20
2018-12-18T03:09:06.594Z,3.77
2018-12-18T03:11:42.479Z,3.45
2018-12-18T03:14:11.354Z,4.20
2018-12-18T03:16:40.547Z,5.13
2018-12-18T03:19:09.884Z,4.37
2018-12-18T03:21:39.131Z,3.53
2018-12-18T03:24:08.010Z,4.00
2018-12-18T03:26:37.211Z,3.30
2018-12-18T03:29:06.748Z,3.57
2018-12-18T03:31:36.975Z,3.73
2018-12-18T03:34:06.137Z,4.23
2018-12-18T03:36:35.417Z,3.77
2018-12-18T03:39:06.009Z,3.93
2018-12-18T03:41:34.860Z,3.80
2018-12-18T03:44:04.035Z,3.73
2018-12-18T03:46:33.323Z,3.47
2018-12-18T03:49:02.568Z,3.73
2018-12-18T03:51:31.815Z,3.70
2018-12-18T03:54:00.762Z,3.83
2018-12-18T03:56:29.911Z,3.63
2018-12-18T03:58:59.344Z,3.87
2018-12-18T04:01:28.599Z,3.72
2018-12-18T04:03:57.822Z,3.50
2018-12-18T04:06:27.335Z,3.60
2018-12-18T04:08:56.591Z,3.53
2018-12-18T04:11:25.483Z,3.43
2018-12-18T04:13:54.270Z,3.20
2018-12-18T04:16:23.074Z,4.33
2018-12-18T04:18:51.887Z,3.10
2018-12-18T04:21:20.696Z,3.40
2018-12-18T04:23:49.893Z,3.30
2018-12-18T04:26:19.127Z,3.17
2018-12-18T04:28:48.477Z,3.73
2018-12-18T04:31:17.735Z,4.60
2018-12-18T04:33:46.972Z,3.90
2018-12-18T04:36:15.906Z,3.57
2018-12-18T04:38:44.706Z,3.53
2018-12-18T04:41:14.232Z,4.00
2018-12-18T04:43:43.108Z,3.13
2018-12-18T04:46:12.271Z,2.80
2018-12-18T04:48:41.647Z,2.80
2018-12-18T04:51:10.872Z,3.70
2018-12-18T04:53:39.754Z,4.17
2018-12-18T04:56:08.904Z,3.80
2018-12-18T04:58:37.766Z,4.35
2018-12-18T05:01:06.620Z,4.53
2018-12-18T05:03:35.610Z,4.47
2018-12-18T05:06:04.904Z,4.93
2018-12-18T05:08:34.168Z,3.12
2018-12-18T05:11:03.505Z,3.27
2018-12-18T05:13:32.770Z,4.67
2018-12-18T05:16:02.020Z,3.22
2018-12-18T05:18:31.263Z,3.15
2018-12-18T05:21:00.500Z,3.73
2018-12-18T05:23:29.755Z,3.70
2018-12-18T05:25:59.019Z,3.87
2018-12-18T05:28:27.976Z,4.13
2018-12-18T05:30:57.151Z,3.07
2018-12-18T05:33:26.010Z,3.30
2018-12-18T05:35:55.161Z,3.50
2018-12-18T05:38:24.442Z,3.07
2018-12-18T05:40:53.695Z,2.93
2018-12-18T05:43:22.551Z,3.40
2018-12-18T05:45:51.722Z,3.30
2018-12-18T05:48:20.957Z,3.63
2018-12-18T05:50:49.870Z,2.83
2018-12-18T05:53:19.150Z,3.37
2018-12-18T05:55:54.916Z,3.00
2018-12-18T05:58:24.159Z,4.03
2018-12-18T06:00:53.400Z,3.87
2018-12-18T06:03:22.270Z,3.33
2018-12-18T06:05:51.107Z,3.47
2018-12-18T06:08:20.877Z,3.17
2018-12-18T06:10:50.145Z,2.87
2018-12-18T06:13:19.491Z,3.23
2018-12-18T06:15:48.715Z,3.30
2018-12-18T06:18:17.590Z,3.47
2018-12-18T06:20:46.794Z,3.20
2018-12-18T06:23:15.673Z,3.30
2018-12-18T06:25:45.331Z,2.63
2018-12-18T06:28:14.607Z,3.47
2018-12-18T06:30:43.859Z,3.17
2018-12-18T06:33:13.083Z,3.57
2018-12-18T06:35:42.277Z,2.80
2018-12-18T06:38:11.503Z,3.77
2018-12-18T06:40:40.436Z,3.10
2018-12-18T06:43:09.268Z,2.93
2018-12-18T06:45:38.053Z,2.77
2018-12-18T06:48:06.895Z,2.47
2018-12-18T06:50:36.092Z,2.67
2018-12-18T06:53:05.366Z,3.20
2018-12-18T06:55:34.620Z,2.93
2018-12-18T06:58:03.499Z,3.00
2018-12-18T07:00:32.671Z,2.90
2018-12-18T07:03:01.539Z,2.57
2018-12-18T07:05:30.734Z,2.77
2018-12-18T07:07:59.597Z,2.93
2018-12-18T07:10:28.753Z,3.73
2018-12-18T07:12:58.031Z,3.13
2018-12-18T07:15:27.183Z,2.77
2018-12-18T07:17:56.832Z,3.50
2018-12-18T07:20:25.730Z,2.87
2018-12-18T07:22:54.870Z,2.90
2018-12-18T07:25:23.902Z,2.80
2018-12-18T07:27:53.048Z,3.30
2018-12-18T07:30:22.354Z,3.93
2018-12-18T07:32:51.644Z,3.50
2018-12-18T07:35:23.401Z,3.10
2018-12-18T07:37:52.123Z,3.47
2018-12-18T07:40:21.102Z,3.07
2018-12-18T07:42:50.307Z,2.60
2018-12-18T07:45:20.238Z,3.00
2018-12-18T07:47:49.012Z,3.17
2018-12-18T07:50:17.811Z,3.07
2018-12-18T07:52:46.629Z,2.63
2018-12-18T07:55:15.844Z,2.33
2018-12-18T07:57:45.096Z,2.80
2018-12-18T08:00:14.040Z,2.52
2018-12-18T08:02:43.204Z,3.23
2018-12-18T08:05:12.564Z,2.27
2018-12-18T08:07:41.466Z,2.60
2018-12-18T08:10:11.071Z,2.70
2018-12-18T08:12:40.327Z,2.43
2018-12-18T08:15:09.611Z,2.70
2018-12-18T08:17:38.583Z,3.43
2018-12-18T08:20:08.054Z,3.37
2018-12-18T08:22:37.295Z,3.15
2018-12-18T08:25:07.126Z,3.07
2018-12-18T08:27:36.349Z,2.83
2018-12-18T08:30:06.971Z,3.67
2018-12-18T08:32:36.304Z,2.80
2018-12-18T08:35:05.330Z,3.40
2018-12-18T08:37:34.515Z,3.17
2018-12-18T08:40:03.996Z,2.97
2018-12-18T08:42:32.949Z,3.35
2018-12-18T08:45:01.787Z,3.43
2018-12-18T08:47:30.935Z,3.20
2018-12-18T08:50:00.180Z,2.90
2018-12-18T08:52:29.095Z,2.85
2018-12-18T08:54:57.870Z,3.40
2018-12-18T08:57:26.694Z,3.07
2018-12-18T08:59:56.175Z,3.03
2018-12-18T09:02:25.123Z,3.83
2018-12-18T09:04:54.914Z,4.27
2018-12-18T09:07:23.750Z,3.23
2018-12-18T09:09:52.939Z,2.53
2018-12-18T09:12:21.879Z,3.70
2018-12-18T09:14:56.227Z,3.13
2018-12-18T09:17:30.883Z,3.60
2018-12-18T09:20:00.234Z,3.97
2018-12-18T09:22:29.682Z,2.97
2018-12-18T09:24:58.571Z,2.40
2018-12-18T09:27:27.376Z,3.60
2018-12-18T09:29:56.544Z,2.73
2018-12-18T09:32:26.178Z,3.20
2018-12-18T09:34:55.083Z,3.57
2018-12-18T09:37:24.243Z,3.10
2018-12-18T09:39:53.520Z,3.13
2018-12-18T09:42:27.899Z,3.37
2018-12-18T09:44:56.738Z,2.80
2018-12-18T09:47:25.889Z,2.80
2018-12-18T09:49:55.216Z,2.87
2018-12-18T09:52:24.129Z,3.10
2018-12-18T09:54:53.356Z,2.98
2018-12-18T09:57:27.508Z,2.77
2018-12-18T09:59:56.663Z,3.07
2018-12-18T10:02:25.551Z,4.00
2018-12-18T10:04:54.346Z,2.90
2018-12-18T10:07:23.519Z,3.37
2018-12-18T10:09:52.450Z,3.13
2018-12-18T10:12:26.783Z,3.07
2018-12-18T10:14:55.709Z,2.30
2018-12-18T10:17:24.854Z,3.37
2018-12-18T10:19:53.830Z,2.67
2018-12-18T10:22:23.126Z,2.63
2018-12-18T10:24:51.986Z,2.80
2018-12-18T10:27:20.766Z,2.57
2018-12-18T10:29:50.393Z,3.13
2018-12-18T10:32:20.251Z,1.90
2018-12-18T10:34:49.811Z,2.43
2018-12-18T10:37:19.931Z,2.50
2018-12-18T10:39:49.480Z,2.73
2018-12-18T10:42:18.726Z,2.73
2018-12-18T10:44:48.039Z,2.23
2018-12-18T10:47:17.680Z,2.80
2018-12-18T10:49:46.929Z,2.60
2018-12-18T10:52:16.228Z,2.90
2018-12-18T10:54:45.174Z,3.00
2018-12-18T10:57:14.339Z,2.40
2018-12-18T10:59:43.239Z,2.67
2018-12-18T11:02:12.843Z,3.10
2018-12-18T11:04:41.771Z,2.37
2018-12-18T11:07:10.558Z,3.10
2018-12-18T11:09:39.720Z,2.60
2018-12-18T11:12:08.649Z,2.47
2018-12-18T11:14:37.475Z,2.37
2018-12-18T11:17:06.805Z,2.80
2018-12-18T11:19:36.043Z,2.47
2018-12-18T11:22:05.354Z,2.47
2018-12-18T11:24:34.242Z,2.43
2018-12-18T11:27:03.464Z,2.73
2018-12-18T11:29:32.363Z,2.83
2018-12-18T11:32:01.413Z,2.77
2018-12-18T11:34:30.254Z,3.07
2018-12-18T11:36:59.495Z,2.47
2018-12-18T11:39:28.935Z,2.80
2018-12-18T11:41:58.158Z,3.53
2018-12-18T11:44:27.428Z,2.70
2018-12-18T11:46:56.727Z,2.57
2018-12-18T11:49:25.620Z,2.10
2018-12-18T11:52:01.511Z,3.20
2018-12-18T11:54:30.452Z,2.57
2018-12-18T11:56:59.665Z,3.47
2018-12-18T11:59:28.551Z,2.33
2018-12-18T12:01:57.766Z,2.47
2018-12-18T12:04:26.667Z,3.02
2018-12-18T12:06:55.982Z,2.40
2018-12-18T12:09:24.846Z,2.57
2018-12-18T12:11:53.695Z,3.13
2018-12-18T12:14:22.928Z,3.13
2018-12-18T12:16:52.252Z,3.10
2018-12-18T12:19:21.154Z,2.07
2018-12-18T12:21:50.310Z,2.90
2018-12-18T12:24:19.546Z,3.23
2018-12-18T12:26:48.732Z,2.93
2018-12-18T12:29:17.998Z,2.20
2018-12-18T12:31:47.311Z,2.47
2018-12-18T12:34:16.597Z,2.70
2018-12-18T12:36:45.907Z,2.23
2018-12-18T12:39:14.890Z,2.70
2018-12-18T12:41:44.063Z,2.90
2018-12-18T12:44:12.963Z,2.23
2018-12-18T12:46:41.839Z,2.60
2018-12-18T12:49:11.475Z,2.50
2018-12-18T12:51:40.759Z,3.37
2018-12-18T12:54:10.013Z,2.27
2018-12-18T12:56:39.258Z,1.97
2018-12-18T12:59:08.576Z,2.67
2018-12-18T13:01:42.171Z,2.43
2018-12-18T13:04:08.739Z,2.83
2018-12-18T13:06:37.946Z,2.57
2018-12-18T13:09:08.952Z,2.87
2018-12-18T13:11:38.748Z,3.53
2018-12-18T13:14:07.607Z,2.80
2018-12-18T13:16:36.820Z,2.77
2018-12-18T13:19:06.186Z,2.57
2018-12-18T13:21:35.069Z,2.03
2018-12-18T13:24:04.580Z,2.53
2018-12-18T13:26:33.506Z,2.40
2018-12-18T13:29:02.701Z,2.40
2018-12-18T13:31:31.582Z,2.13
2018-12-18T13:34:00.394Z,2.30
2018-12-18T13:36:29.180Z,2.00
2018-12-18T13:38:58.380Z,2.93
2018-12-18T13:41:27.663Z,2.90
2018-12-18T13:43:56.927Z,2.63
2018-12-18T13:46:25.858Z,2.60
2018-12-18T13:48:54.827Z,2.97
2018-12-18T13:51:23.647Z,3.13
2018-12-18T13:53:52.450Z,2.67
2018-12-18T13:56:21.612Z,2.70
2018-12-18T13:58:50.930Z,3.00
2018-12-18T14:01:20.872Z,3.30
2018-12-18T14:03:49.783Z,2.90
2018-12-18T14:06:18.987Z,3.03
2018-12-18T14:08:48.233Z,3.13
2018-12-18T14:11:17.490Z,2.27
2018-12-18T14:13:46.755Z,3.13
2018-12-18T14:16:16.212Z,3.17
2018-12-18T14:18:45.075Z,2.67
2018-12-18T14:21:14.232Z,2.60
2018-12-18T14:23:43.130Z,3.03
2018-12-18T14:26:12.355Z,2.37
2018-12-18T14:28:41.614Z,2.10
2018-12-18T14:31:10.855Z,2.67
2018-12-18T14:33:39.796Z,11.00
2018-12-18T14:36:08.581Z,2.73
2018-12-18T14:38:37.753Z,2.83
2018-12-18T14:41:07.025Z,2.93
2018-12-18T14:43:36.304Z,3.17
2018-12-18T14:46:05.659Z,2.47
2018-12-18T14:48:34.590Z,2.40
2018-12-18T14:51:03.884Z,2.50
2018-12-18T14:53:33.169Z,2.37
2018-12-18T14:56:02.423Z,2.60
2018-12-18T14:58:31.653Z,2.57
2018-12-18T15:01:00.953Z,2.80
2018-12-18T15:03:30.242Z,2.10
2018-12-18T15:05:59.495Z,2.47
2018-12-18T15:08:28.796Z,2.10
2018-12-18T15:10:57.784Z,2.40
2018-12-18T15:13:28.870Z,2.87
2018-12-18T15:15:58.147Z,3.07
2018-12-18T15:18:27.387Z,2.20
2018-12-18T15:20:56.603Z,2.63
2018-12-18T15:23:25.539Z,2.00
2018-12-18T15:25:54.362Z,2.20
2018-12-18T15:28:23.126Z,2.20
2018-12-18T15:30:51.971Z,2.20
2018-12-18T15:33:21.163Z,2.40
2018-12-18T15:35:50.346Z,2.37
2018-12-18T15:38:19.592Z,1.93
2018-12-18T15:40:48.472Z,1.63
2018-12-18T15:43:17.592Z,2.07
2018-12-18T15:45:46.638Z,3.10
2018-12-18T15:48:15.414Z,2.70
2018-12-18T15:50:44.239Z,2.30
2018-12-18T15:53:13.066Z,2.37
2018-12-18T15:55:41.966Z,2.90
2018-12-18T15:58:11.231Z,2.73
2018-12-18T16:00:40.468Z,2.17
2018-12-18T16:03:09.714Z,2.80
2018-12-18T16:05:39.112Z,2.25
2018-12-18T16:08:08.395Z,2.27
2018-12-18T16:10:37.687Z,2.10
2018-12-18T16:13:06.923Z,2.50
2018-12-18T16:15:36.368Z,2.12
2018-12-18T16:18:05.347Z,1.90
2018-12-18T16:20:34.147Z,2.70
2018-12-18T16:23:03.308Z,2.00
2018-12-18T16:25:32.199Z,2.08
2018-12-18T16:28:01.372Z,1.50
2018-12-18T16:30:30.744Z,2.30
2018-12-18T16:33:00.041Z,1.93
2018-12-18T16:35:28.937Z,1.90
2018-12-18T16:37:58.150Z,2.20
2018-12-18T16:40:27.432Z,2.30
2018-12-18T16:42:56.663Z,2.03
2018-12-18T16:45:25.558Z,2.70
2018-12-18T16:47:54.772Z,1.60
2018-12-18T16:50:26.683Z,1.93
2018-12-18T16:52:54.828Z,2.13
2018-12-18T16:55:23.687Z,1.97
2018-12-18T16:57:52.540Z,2.10
2018-12-18T17:00:21.335Z,2.40
2018-12-18T17:02:50.124Z,2.37
2018-12-18T17:05:18.967Z,2.90
2018-12-18T17:07:48.293Z,3.13
2018-12-18T17:10:17.538Z,2.17
2018-12-18T17:12:52.115Z,3.37
2018-12-18T17:15:21.774Z,2.30
2018-12-18T17:17:50.719Z,2.70
2018-12-18T17:20:20.020Z,3.53
2018-12-18T17:22:49.906Z,2.30
2018-12-18T17:25:18.837Z,2.47
2018-12-18T17:27:47.629Z,2.27
2018-12-18T17:30:23.409Z,2.37
2018-12-18T17:32:52.289Z,2.33
2018-12-18T17:35:21.555Z,2.52
2018-12-18T17:37:51.849Z,2.00
2018-12-18T17:40:22.004Z,2.63
2018-12-18T17:42:51.785Z,2.43
2018-12-18T17:45:20.727Z,2.93
2018-12-18T17:47:49.923Z,3.70
2018-12-18T17:50:19.300Z,2.50
2018-12-18T17:52:48.580Z,3.03
2018-12-18T17:55:18.004Z,3.53
2018-12-18T17:57:47.223Z,2.97
2018-12-18T18:00:16.154Z,2.90
2018-12-18T18:02:45.284Z,2.67
2018-12-18T18:05:14.190Z,3.30
2018-12-18T18:07:43.403Z,3.20
2018-12-18T18:10:12.676Z,2.03
2018-12-18T18:12:41.611Z,2.10
2018-12-18T18:15:11.484Z,2.67
2018-12-18T18:17:40.510Z,2.43
2018-12-18T18:20:09.334Z,2.97
2018-12-18T18:22:38.359Z,3.43
2018-12-18T18:25:07.795Z,2.30
2018-12-18T18:27:37.056Z,3.50
2018-12-18T18:30:06.773Z,2.93
2018-12-18T18:32:35.560Z,3.07
2018-12-18T18:35:04.691Z,2.10
2018-12-18T18:37:33.791Z,4.00
2018-12-18T18:40:03.152Z,6.67
2018-12-18T18:42:32.094Z,3.63
2018-12-18T18:45:01.252Z,2.83
2018-12-18T18:47:30.516Z,4.13
2018-12-18T18:49:59.747Z,3.33
2018-12-18T18:52:28.656Z,2.77
2018-12-18T18:54:57.851Z,2.63
2018-12-18T18:57:27.231Z,2.87
2018-12-18T18:59:56.141Z,3.67
2018-12-18T19:02:25.478Z,3.60
2018-12-18T19:04:54.371Z,3.07
2018-12-18T19:07:23.237Z,3.60
2018-12-18T19:09:52.384Z,2.73
2018-12-18T19:12:22.179Z,3.30
2018-12-18T19:14:51.078Z,3.17
2018-12-18T19:17:21.107Z,3.70
2018-12-18T19:19:50.393Z,3.20
2018-12-18T19:22:19.648Z,3.40
2018-12-18T19:24:48.902Z,3.10
2018-12-18T19:27:18.242Z,2.97
2018-12-18T19:29:47.472Z,3.20
2018-12-18T19:32:16.796Z,2.90
2018-12-18T19:34:45.710Z,2.67
2018-12-18T19:37:14.493Z,2.63
2018-12-18T19:39:43.920Z,2.90
2018-12-18T19:42:13.255Z,4.00
2018-12-18T19:44:43.335Z,2.77
2018-12-18T19:47:12.915Z,4.50
2018-12-18T19:49:42.170Z,2.73
2018-12-18T19:52:11.409Z,4.00
2018-12-18T19:54:40.451Z,3.47
2018-12-18T19:57:09.673Z,2.73
2018-12-18T19:59:38.932Z,2.80
2018-12-18T20:02:08.179Z,3.20
2018-12-18T20:04:37.517Z,3.40
2018-12-18T20:07:06.757Z,3.03
2018-12-18T20:09:35.666Z,3.03
2018-12-18T20:12:04.831Z,3.90
2018-12-18T20:14:33.844Z,3.70
2018-12-18T20:17:03.079Z,3.70
2018-12-18T20:19:31.991Z,3.65
2018-12-18T20:22:01.155Z,3.80
2018-12-18T20:24:30.441Z,4.30
2018-12-18T20:26:59.870Z,3.03
2018-12-18T20:29:29.673Z,3.02
2018-12-18T20:31:58.923Z,3.80
2018-12-18T20:34:27.831Z,3.97
2018-12-18T20:36:57.038Z,3.70
2018-12-18T20:39:26.005Z,3.97
2018-12-18T20:41:56.295Z,2.87
2018-12-18T20:44:25.344Z,3.23
2018-12-18T20:46:54.233Z,3.90
2018-12-18T20:49:23.519Z,4.00
2018-12-18T20:51:52.324Z,3.73
2018-12-18T20:54:21.102Z,3.73
2018-12-18T20:56:49.992Z,3.33
2018-12-18T20:59:19.179Z,3.30
2018-12-18T21:01:48.427Z,4.23
2018-12-18T21:04:17.365Z,3.30
2018-12-18T21:06:46.222Z,3.73
2018-12-18T21:09:15.435Z,4.70
2018-12-18T21:11:44.376Z,4.77
2018-12-18T21:14:13.199Z,3.47
2018-12-18T21:16:42.416Z,4.43
2018-12-18T21:19:11.775Z,5.00
2018-12-18T21:21:41.107Z,3.40
2018-12-18T21:24:10.003Z,3.50
2018-12-18T21:26:39.255Z,3.63
2018-12-18T21:29:08.603Z,3.90
2018-12-18T21:31:37.502Z,3.43
2018-12-18T21:34:06.741Z,3.07
2018-12-18T21:36:35.667Z,3.10
2018-12-18T21:39:08.031Z,2.37
2018-12-18T21:41:37.147Z,1.85
2018-12-18T21:44:06.392Z,1.53
2018-12-18T21:46:36.258Z,2.65
2018-12-18T21:49:05.265Z,1.70
2018-12-18T21:51:34.204Z,1.90
2018-12-18T21:54:03.468Z,2.10
2018-12-18T21:56:32.832Z,2.20
2018-12-18T21:59:02.204Z,1.60
2018-12-18T22:01:31.586Z,2.05
2018-12-18T22:04:00.884Z,2.40
2018-12-18T22:06:29.775Z,1.95
2018-12-18T22:08:59.008Z,2.43
2018-12-18T22:11:27.960Z,2.40
2018-12-18T22:13:56.766Z,2.47
2018-12-18T22:16:25.645Z,1.83
2018-12-18T22:18:54.558Z,1.93
2018-12-18T22:21:23.748Z,2.30
2018-12-18T22:23:53.046Z,2.40
2018-12-18T22:26:22.297Z,2.27
2018-12-18T22:28:51.199Z,1.70
2018-12-18T22:31:20.640Z,2.22
2018-12-18T22:33:49.895Z,2.20
2018-12-18T22:36:19.754Z,2.57
2018-12-18T22:38:48.543Z,2.00
2018-12-18T22:41:17.374Z,1.83
2018-12-18T22:43:46.687Z,2.10
2018-12-18T22:46:16.498Z,1.67
2018-12-18T22:48:45.748Z,1.93
2018-12-18T22:51:15.019Z,1.80
2018-12-18T22:53:44.274Z,1.50
2018-12-18T22:56:13.543Z,1.77
2018-12-18T22:58:42.794Z,1.60
2018-12-18T23:01:20.979Z,1.93
2018-12-18T23:03:50.251Z,1.23
2018-12-18T23:06:20.689Z,1.53
2018-12-18T23:08:50.401Z,1.00
2018-12-18T23:11:20.663Z,1.12
2018-12-18T23:13:49.914Z,1.83
2018-12-18T23:16:19.758Z,1.43
2018-12-18T23:18:48.952Z,1.20
2018-12-18T23:21:17.886Z,1.40
2018-12-18T23:23:47.039Z,1.73
2018-12-18T23:26:16.333Z,1.63
2018-12-18T23:28:45.573Z,2.30
2018-12-18T23:31:14.458Z,1.50
2018-12-18T23:33:43.624Z,1.80
2018-12-18T23:36:12.875Z,2.37
2018-12-18T23:38:42.150Z,1.83
2018-12-18T23:41:11.411Z,1.67
2018-12-18T23:43:40.641Z,1.50
2018-12-18T23:46:09.881Z,1.40
2018-12-18T23:48:39.812Z,1.83
2018-12-18T23:51:09.659Z,1.37
2018-12-18T23:53:38.948Z,1.60
2018-12-18T23:56:08.192Z,1.67
2018-12-18T23:58:37.092Z,2.70
